createdAt,value
2022-12-19T00:01:41.800Z,53.91
2022-12-19T00:04:11.540Z,53.44
2022-12-19T00:06:43.368Z,53.14
2022-12-19T00:09:12.388Z,53.19
2022-12-19T00:11:40.340Z,53.60
2022-12-19T00:14:09.376Z,52.66
2022-12-19T00:16:36.336Z,53.18
2022-12-19T00:19:03.641Z,53.49
2022-12-19T00:21:35.208Z,53.65
2022-12-19T00:24:03.689Z,53.29
2022-12-19T00:26:37.080Z,53.59
2022-12-19T00:29:12.538Z,53.08
2022-12-19T00:31:40.969Z,53.75
2022-12-19T00:34:09.178Z,53.67
2022-12-19T00:36:36.082Z,54.10
2022-12-19T00:39:08.547Z,54.37
2022-12-19T00:41:37.636Z,54.61
2022-12-19T00:44:14.098Z,54.71
2022-12-19T00:46:41.909Z,54.74
2022-12-19T00:49:08.712Z,54.86
2022-12-19T00:51:37.609Z,54.67
2022-12-19T00:54:09.747Z,55.42
2022-12-19T00:56:37.732Z,55.03
2022-12-19T00:59:07.287Z,54.75
2022-12-19T01:01:37.353Z,55.28
2022-12-19T01:06:54.392Z,54.26
2022-12-19T01:09:24.919Z,54.41
2022-12-19T01:12:10.181Z,54.26
2022-12-19T01:14:36.970Z,55.26
2022-12-19T01:17:03.829Z,54.87
2022-12-19T01:19:30.653Z,54.48
2022-12-19T01:21:57.581Z,54.53
2022-12-19T01:24:24.735Z,55.36
2022-12-19T01:26:51.686Z,55.20
2022-12-19T01:29:18.370Z,54.29
2022-12-19T01:31:45.227Z,53.87
2022-12-19T01:34:12.079Z,54.78
2022-12-19T01:36:40.016Z,54.83
2022-12-19T01:39:07.352Z,54.64
2022-12-19T01:41:34.159Z,54.45
2022-12-19T01:44:06.006Z,55.13
2022-12-19T01:46:43.539Z,55.10
2022-12-19T01:49:20.978Z,55.53
2022-12-19T01:51:53.742Z,54.29
2022-12-19T01:54:25.945Z,54.37
2022-12-19T01:56:56.288Z,54.90
2022-12-19T01:59:29.635Z,54.88
2022-12-19T02:02:03.459Z,54.62
2022-12-19T02:04:32.391Z,55.06
2022-12-19T02:07:11.673Z,54.76
2022-12-19T02:09:46.159Z,54.14
2022-12-19T02:12:14.354Z,54.48
2022-12-19T02:14:42.160Z,54.73
2022-12-19T02:17:49.220Z,55.20
2022-12-19T02:20:20.126Z,54.25
2022-12-19T02:23:17.069Z,54.62
2022-12-19T02:25:56.782Z,54.60
2022-12-19T02:28:57.179Z,54.86
2022-12-19T02:31:34.618Z,54.56
2022-12-19T02:34:44.219Z,54.57
2022-12-19T02:37:17.706Z,54.62
2022-12-19T02:39:52.571Z,55.19
2022-12-19T02:42:32.701Z,55.82
2022-12-19T02:45:06.047Z,55.49
2022-12-19T02:47:34.375Z,55.45
2022-12-19T02:50:03.272Z,55.34
2022-12-19T02:52:30.740Z,55.63
2022-12-19T02:55:05.185Z,55.21
2022-12-19T02:58:07.559Z,55.55
2022-12-19T03:00:45.108Z,55.97
2022-12-19T03:03:24.639Z,56.55
2022-12-19T03:06:14.109Z,56.28
2022-12-19T03:08:57.241Z,55.05
2022-12-19T03:11:27.577Z,55.66
2022-12-19T03:13:59.482Z,55.64
2022-12-19T03:16:26.694Z,55.28
2022-12-19T03:18:55.939Z,55.18
2022-12-19T03:21:37.636Z,55.02
2022-12-19T03:24:07.318Z,55.19
2022-12-19T03:26:45.207Z,54.97
2022-12-19T03:29:39.922Z,54.79
2022-12-19T03:32:10.761Z,55.47
2022-12-19T03:34:57.545Z,55.04
2022-12-19T03:37:28.844Z,54.93
2022-12-19T03:40:00.429Z,55.18
2022-12-19T03:42:48.701Z,55.33
2022-12-19T03:45:22.091Z,55.04
2022-12-19T03:47:55.996Z,55.11
2022-12-19T03:50:27.532Z,54.81
2022-12-19T03:53:01.085Z,54.97
2022-12-19T03:55:37.224Z,54.55
2022-12-19T03:58:10.537Z,53.42
2022-12-19T04:00:47.445Z,52.61
2022-12-19T04:03:17.668Z,53.10
2022-12-19T04:05:47.090Z,53.84
2022-12-19T04:08:14.979Z,53.20
2022-12-19T04:10:51.530Z,53.40
2022-12-19T04:13:25.989Z,53.69
2022-12-19T04:16:17.273Z,53.10
2022-12-19T04:18:52.413Z,52.62
2022-12-19T04:21:35.613Z,53.13
2022-12-19T04:24:20.617Z,52.81
2022-12-19T04:26:49.466Z,52.77
2022-12-19T04:29:17.850Z,52.92
2022-12-19T04:31:44.842Z,52.67
2022-12-19T04:34:11.805Z,52.99
2022-12-19T04:36:38.713Z,53.09
2022-12-19T04:39:05.651Z,54.17
2022-12-19T04:41:32.495Z,53.40
2022-12-19T04:43:59.676Z,53.42
2022-12-19T04:46:26.543Z,53.47
2022-12-19T04:48:53.518Z,53.68
2022-12-19T04:51:20.646Z,53.82
2022-12-19T04:53:47.489Z,54.39
2022-12-19T04:56:14.366Z,54.80
2022-12-19T04:58:41.256Z,54.26
2022-12-19T05:01:09.260Z,54.67
2022-12-19T05:03:37.196Z,54.86
2022-12-19T05:06:06.230Z,54.96
2022-12-19T05:08:33.326Z,55.13
2022-12-19T05:11:01.814Z,55.52
2022-12-19T05:13:30.273Z,55.22
2022-12-19T05:15:58.853Z,55.69
2022-12-19T05:18:26.201Z,55.08
2022-12-19T05:20:53.579Z,55.81
2022-12-19T05:23:20.736Z,54.86
2022-12-19T05:25:47.550Z,55.40
2022-12-19T05:28:15.407Z,54.67
2022-12-19T05:30:47.754Z,54.20
2022-12-19T05:33:17.569Z,54.74
2022-12-19T05:35:44.260Z,55.61
2022-12-19T05:38:11.037Z,55.72
2022-12-19T05:40:37.870Z,55.71
2022-12-19T05:43:04.976Z,55.61
2022-12-19T05:45:31.759Z,54.56
2022-12-19T05:48:01.317Z,55.37
2022-12-19T05:50:28.515Z,55.44
2022-12-19T05:52:55.649Z,55.76
2022-12-19T05:55:22.487Z,55.55
2022-12-19T05:57:49.349Z,54.58
2022-12-19T06:00:16.596Z,54.51
2022-12-19T06:02:43.844Z,54.14
2022-12-19T06:05:13.702Z,53.89
2022-12-19T06:07:40.774Z,54.05
2022-12-19T06:10:08.022Z,57.07
2022-12-19T06:12:34.818Z,57.29
2022-12-19T06:15:01.567Z,54.97
2022-12-19T06:17:28.401Z,53.91
2022-12-19T06:19:55.257Z,53.77
2022-12-19T06:22:22.011Z,53.45
2022-12-19T06:24:48.876Z,53.73
2022-12-19T06:27:15.705Z,53.22
2022-12-19T06:29:43.570Z,53.28
2022-12-19T06:32:10.661Z,53.39
2022-12-19T06:35:03.065Z,54.09
2022-12-19T06:37:24.283Z,53.90
2022-12-19T06:39:51.432Z,52.86
2022-12-19T06:42:24.096Z,53.27
2022-12-19T06:44:52.574Z,52.46
2022-12-19T06:47:21.109Z,53.29
2022-12-19T06:49:48.764Z,52.96
2022-12-19T06:52:17.085Z,52.00
2022-12-19T06:54:43.874Z,52.69
2022-12-19T06:57:10.644Z,52.89
2022-12-19T06:59:37.621Z,53.50
2022-12-19T07:02:20.281Z,53.13
2022-12-19T07:04:51.932Z,53.31
2022-12-19T07:07:19.371Z,54.11
2022-12-19T07:09:47.763Z,53.61
2022-12-19T07:12:14.731Z,53.73
2022-12-19T07:14:41.356Z,54.77
2022-12-19T07:17:08.194Z,56.16
2022-12-19T07:19:35.514Z,54.97
2022-12-19T07:22:03.873Z,54.51
2022-12-19T07:24:31.671Z,54.43
2022-12-19T07:26:58.736Z,54.03
2022-12-19T07:29:25.574Z,53.32
2022-12-19T07:31:52.563Z,54.01
2022-12-19T07:34:19.657Z,53.61
2022-12-19T07:36:46.382Z,52.85
2022-12-19T07:39:13.231Z,53.30
2022-12-19T07:41:39.978Z,53.21
2022-12-19T07:44:07.810Z,52.71
2022-12-19T07:46:34.774Z,53.11
2022-12-19T07:49:01.805Z,52.62
2022-12-19T07:51:28.749Z,53.00
2022-12-19T07:53:55.535Z,53.14
2022-12-19T07:56:22.370Z,52.51
2022-12-19T07:58:49.073Z,52.88
2022-12-19T08:01:16.039Z,53.26
2022-12-19T08:03:43.098Z,52.71
2022-12-19T08:06:11.270Z,52.55
2022-12-19T08:08:38.047Z,52.55
2022-12-19T08:11:09.891Z,52.86
2022-12-19T08:13:40.743Z,53.43
2022-12-19T08:16:10.808Z,53.18
2022-12-19T08:18:37.734Z,52.64
2022-12-19T08:21:04.575Z,52.02
2022-12-19T08:23:32.764Z,53.11
2022-12-19T08:26:05.456Z,52.91
2022-12-19T08:28:36.569Z,52.95
2022-12-19T08:31:12.100Z,53.61
2022-12-19T08:33:39.337Z,53.31
2022-12-19T08:36:08.159Z,53.43
2022-12-19T08:38:35.370Z,53.15
2022-12-19T08:41:02.341Z,53.91
2022-12-19T08:43:29.450Z,54.00
2022-12-19T08:45:56.550Z,53.31
2022-12-19T08:48:24.082Z,53.66
2022-12-19T08:50:50.857Z,52.64
2022-12-19T08:53:22.709Z,52.98
2022-12-19T08:55:57.031Z,53.27
2022-12-19T08:58:25.379Z,53.16
2022-12-19T09:01:01.796Z,52.88
2022-12-19T09:03:47.907Z,54.05
2022-12-19T09:06:20.744Z,52.63
2022-12-19T09:08:47.911Z,52.50
2022-12-19T09:11:16.859Z,52.07
2022-12-19T09:13:45.054Z,51.81
2022-12-19T09:16:13.060Z,51.68
2022-12-19T09:18:47.934Z,52.63
2022-12-19T09:21:16.419Z,52.84
2022-12-19T09:23:47.715Z,51.91
2022-12-19T09:26:16.856Z,52.00
2022-12-19T09:28:46.081Z,52.75
2022-12-19T09:31:16.001Z,51.82
2022-12-19T09:33:44.004Z,52.29
2022-12-19T09:36:17.102Z,51.86
2022-12-19T09:38:44.774Z,52.04
2022-12-19T09:41:33.301Z,52.10
2022-12-19T09:44:07.408Z,52.45
2022-12-19T09:47:02.387Z,51.31
2022-12-19T09:49:41.694Z,50.86
2022-12-19T09:52:13.925Z,51.82
2022-12-19T09:55:19.839Z,51.75
2022-12-19T09:57:58.513Z,51.93
2022-12-19T10:00:33.826Z,51.56
2022-12-19T10:03:10.658Z,52.09
2022-12-19T10:07:06.883Z,51.41
2022-12-19T10:08:47.260Z,52.02
2022-12-19T10:12:47.943Z,51.50
2022-12-19T10:15:06.469Z,51.98
2022-12-19T10:17:36.281Z,51.38
2022-12-19T10:20:29.754Z,51.19
2022-12-19T10:23:23.344Z,51.85
2022-12-19T10:25:52.555Z,51.17
2022-12-19T10:28:51.887Z,50.69
2022-12-19T10:31:26.684Z,50.18
2022-12-19T10:34:33.645Z,51.18
2022-12-19T10:37:45.668Z,51.03
2022-12-19T10:40:28.364Z,51.85
2022-12-19T10:43:15.295Z,52.16
2022-12-19T10:45:51.578Z,52.33
2022-12-19T10:48:25.699Z,52.02
2022-12-19T10:51:00.630Z,52.22
2022-12-19T10:53:33.109Z,54.00
2022-12-19T10:56:02.604Z,53.92
2022-12-19T10:58:37.378Z,52.89
2022-12-19T11:01:09.897Z,53.95
2022-12-19T11:03:38.790Z,53.49
2022-12-19T11:06:06.563Z,53.39
2022-12-19T11:08:37.494Z,52.73
2022-12-19T11:12:39.570Z,52.92
2022-12-19T11:19:22.143Z,51.91
2022-12-19T11:26:34.430Z,52.92
2022-12-19T11:29:16.567Z,53.06
2022-12-19T11:29:38.157Z,53.01
2022-12-19T11:29:38.253Z,52.44
2022-12-19T11:30:35.303Z,52.85
2022-12-19T11:34:23.514Z,52.87
2022-12-19T11:36:56.203Z,52.84
2022-12-19T11:39:30.327Z,51.60
2022-12-19T11:42:16.001Z,52.16
2022-12-19T11:44:52.694Z,51.60
2022-12-19T11:47:25.392Z,51.96
2022-12-19T11:50:00.999Z,51.55
2022-12-19T11:55:41.130Z,52.49
2022-12-19T11:58:12.609Z,51.94
2022-12-19T12:00:52.725Z,53.08
2022-12-19T12:03:31.490Z,52.89
2022-12-19T12:05:58.538Z,54.00
2022-12-19T12:11:07.999Z,54.10
2022-12-19T12:19:49.588Z,54.67
2022-12-19T12:25:11.494Z,55.01
2022-12-19T12:31:00.548Z,55.20
2022-12-19T12:31:10.658Z,54.63
2022-12-19T12:31:25.830Z,54.78
2022-12-19T12:32:00.730Z,54.37
2022-12-19T12:32:06.315Z,53.56
2022-12-19T12:35:51.086Z,53.50
2022-12-19T12:39:04.995Z,54.34
2022-12-19T12:41:50.299Z,54.21
2022-12-19T12:44:18.336Z,53.99
2022-12-19T12:47:14.542Z,53.45
2022-12-19T12:49:49.078Z,52.83
2022-12-19T12:52:20.151Z,53.13
2022-12-19T12:54:49.094Z,52.64
2022-12-19T12:57:32.851Z,52.33
2022-12-19T13:00:28.394Z,52.17
2022-12-19T13:03:11.031Z,51.65
2022-12-19T13:05:49.744Z,51.15
2022-12-19T13:08:40.924Z,52.03
2022-12-19T13:11:38.581Z,51.56
2022-12-19T13:14:26.486Z,50.89
2022-12-19T13:16:54.447Z,51.05
2022-12-19T13:19:28.875Z,51.21
2022-12-19T13:22:04.731Z,51.18
2022-12-19T13:24:55.357Z,50.99
2022-12-19T13:27:22.565Z,50.52
2022-12-19T13:30:01.568Z,50.04
2022-12-19T13:32:54.284Z,49.84
2022-12-19T13:37:46.530Z,50.73
2022-12-19T13:40:01.047Z,50.41
2022-12-19T13:41:49.572Z,51.19
2022-12-19T13:44:21.974Z,50.17
2022-12-19T13:46:49.718Z,50.53
2022-12-19T13:49:30.434Z,50.06
2022-12-19T13:52:02.616Z,49.46
2022-12-19T13:54:34.716Z,49.86
2022-12-19T13:57:08.920Z,49.87
2022-12-19T13:59:39.974Z,49.65
2022-12-19T14:02:15.726Z,48.93
2022-12-19T14:04:45.017Z,49.73
2022-12-19T14:07:41.966Z,49.18
2022-12-19T14:11:33.550Z,48.88
2022-12-19T14:13:40.195Z,48.98
2022-12-19T14:16:35.018Z,49.45
2022-12-19T14:19:20.767Z,49.09
2022-12-19T14:22:04.242Z,49.20
2022-12-19T14:24:34.634Z,49.08
2022-12-19T14:28:20.448Z,48.87
2022-12-19T14:30:30.926Z,49.33
2022-12-19T14:33:40.605Z,49.44
2022-12-19T14:36:09.641Z,49.06
2022-12-19T14:39:22.534Z,48.98
2022-12-19T14:42:02.502Z,47.86
2022-12-19T14:52:50.940Z,47.81
2022-12-19T14:54:02.060Z,48.15
2022-12-19T14:54:23.411Z,47.98
2022-12-19T14:54:37.229Z,49.24
2022-12-19T14:59:01.728Z,49.48
2022-12-19T15:01:32.424Z,49.90
2022-12-19T15:04:52.466Z,50.05
2022-12-19T15:07:07.491Z,49.52
2022-12-19T15:11:06.263Z,50.00
2022-12-19T15:14:50.942Z,50.10
2022-12-19T15:16:06.112Z,51.06
2022-12-19T15:18:33.053Z,51.26
2022-12-19T15:21:03.488Z,51.21
2022-12-19T15:23:31.407Z,51.01
2022-12-19T15:26:04.382Z,51.67
2022-12-19T15:28:52.688Z,52.10
2022-12-19T15:31:40.979Z,51.86
2022-12-19T15:34:48.226Z,52.58
2022-12-19T15:37:13.505Z,51.71
2022-12-19T15:39:40.835Z,51.78
2022-12-19T15:42:25.413Z,51.93
2022-12-19T15:44:55.894Z,51.78
2022-12-19T15:47:32.244Z,52.15
2022-12-19T15:50:02.722Z,51.91
2022-12-19T15:52:30.171Z,51.55
2022-12-19T15:54:57.475Z,51.67
2022-12-19T15:57:33.106Z,54.97
2022-12-19T16:00:02.864Z,53.77
2022-12-19T16:05:22.171Z,51.44
2022-12-19T16:07:49.457Z,51.65
2022-12-19T16:10:17.135Z,51.00
2022-12-19T16:12:53.092Z,51.45
2022-12-19T16:15:30.105Z,51.63
2022-12-19T16:17:58.858Z,52.09
2022-12-19T16:20:28.989Z,51.74
2022-12-19T16:22:56.367Z,52.22
2022-12-19T16:25:29.409Z,52.04
2022-12-19T16:27:58.501Z,52.48
2022-12-19T16:30:30.691Z,52.08
2022-12-19T16:32:57.844Z,51.39
2022-12-19T16:35:54.873Z,51.35
2022-12-19T16:38:13.441Z,51.35
2022-12-19T16:40:40.726Z,50.83
2022-12-19T16:43:32.284Z,50.71
2022-12-19T16:46:01.804Z,50.70
2022-12-19T16:48:30.197Z,50.73
2022-12-19T16:50:58.608Z,51.77
2022-12-19T16:53:25.431Z,51.34
2022-12-19T16:55:53.474Z,51.01
2022-12-19T16:58:26.405Z,51.38
2022-12-19T17:00:55.185Z,51.48
2022-12-19T17:03:27.698Z,51.20
2022-12-19T17:05:55.112Z,51.34
2022-12-19T17:08:22.179Z,51.90
2022-12-19T17:10:49.182Z,52.13
2022-12-19T17:13:21.180Z,51.71
2022-12-19T17:15:54.517Z,52.08
2022-12-19T17:18:32.028Z,52.21
2022-12-19T17:20:58.975Z,52.61
2022-12-19T17:23:29.020Z,52.78
2022-12-19T17:25:56.467Z,52.38
2022-12-19T17:28:23.392Z,51.81
2022-12-19T17:30:53.428Z,52.08
2022-12-19T17:33:23.811Z,52.99
2022-12-19T17:35:50.785Z,52.62
2022-12-19T17:38:18.228Z,52.29
2022-12-19T17:40:45.596Z,52.17
2022-12-19T17:43:13.403Z,52.17
2022-12-19T17:45:41.071Z,51.54
2022-12-19T17:48:26.351Z,53.51
2022-12-19T17:50:53.878Z,52.52
2022-12-19T17:53:21.139Z,52.80
2022-12-19T17:55:49.493Z,52.06
2022-12-19T17:58:16.676Z,51.72
2022-12-19T18:00:47.332Z,51.63
2022-12-19T18:03:21.693Z,51.06
2022-12-19T18:05:51.858Z,51.04
2022-12-19T18:08:28.556Z,51.26
2022-12-19T18:10:57.342Z,51.74
2022-12-19T18:13:25.679Z,51.30
2022-12-19T18:15:55.469Z,50.86
2022-12-19T18:18:28.117Z,50.12
2022-12-19T18:20:55.326Z,50.68
2022-12-19T18:23:23.870Z,50.04
2022-12-19T18:25:56.128Z,49.95
2022-12-19T18:28:26.475Z,49.54
2022-12-19T18:30:59.520Z,49.24
2022-12-19T18:33:26.679Z,48.71
2022-12-19T18:35:53.508Z,47.49
2022-12-19T18:38:23.238Z,47.13
2022-12-19T18:40:54.693Z,45.99
2022-12-19T18:43:21.718Z,45.65
2022-12-19T18:45:51.711Z,45.25
2022-12-19T18:48:37.002Z,45.33
2022-12-19T18:51:05.439Z,45.18
2022-12-19T18:53:35.723Z,45.91
2022-12-19T18:56:05.944Z,45.41
2022-12-19T18:58:33.356Z,46.42
2022-12-19T19:01:01.043Z,45.53
2022-12-19T19:03:31.669Z,46.58
2022-12-19T19:05:58.797Z,45.64
2022-12-19T19:08:28.321Z,46.12
2022-12-19T19:11:07.170Z,46.13
2022-12-19T19:13:34.048Z,46.41
2022-12-19T19:16:03.576Z,46.40
2022-12-19T19:18:34.632Z,46.12
2022-12-19T19:21:02.270Z,46.36
2022-12-19T19:23:41.409Z,45.98
2022-12-19T19:26:08.093Z,46.14
2022-12-19T19:28:37.263Z,45.14
2022-12-19T19:31:09.152Z,45.09
2022-12-19T19:33:40.529Z,44.78
2022-12-19T19:36:12.658Z,44.66
2022-12-19T19:38:45.183Z,44.81
2022-12-19T19:41:12.755Z,45.18
2022-12-19T19:43:39.589Z,45.15
2022-12-19T19:46:06.412Z,44.65
2022-12-19T19:48:33.471Z,44.98
2022-12-19T19:51:00.261Z,44.50
2022-12-19T19:53:27.073Z,44.90
2022-12-19T19:56:00.618Z,44.98
2022-12-19T19:58:28.324Z,45.37
2022-12-19T20:00:56.896Z,44.34
2022-12-19T20:03:24.446Z,45.08
2022-12-19T20:05:58.840Z,44.92
2022-12-19T20:08:25.818Z,45.43
2022-12-19T20:10:57.022Z,44.92
2022-12-19T20:13:24.040Z,44.64
2022-12-19T20:15:51.061Z,44.80
2022-12-19T20:18:18.616Z,45.09
2022-12-19T20:20:48.727Z,44.94
2022-12-19T20:23:16.806Z,45.49
2022-12-19T20:25:43.516Z,45.27
2022-12-19T20:28:10.349Z,44.90
2022-12-19T20:30:37.916Z,44.51
2022-12-19T20:33:04.696Z,45.01
2022-12-19T20:35:31.452Z,44.85
2022-12-19T20:37:58.421Z,45.33
2022-12-19T20:40:25.059Z,44.95
2022-12-19T20:42:52.935Z,44.80
2022-12-19T20:45:19.929Z,45.13
2022-12-19T20:47:46.546Z,45.69
2022-12-19T20:50:14.906Z,45.96
2022-12-19T20:52:42.422Z,45.87
2022-12-19T20:55:09.988Z,46.08
2022-12-19T20:57:36.774Z,45.81
2022-12-19T21:00:05.383Z,46.17
2022-12-19T21:02:52.615Z,46.47
2022-12-19T21:05:20.598Z,46.63
2022-12-19T21:07:47.620Z,47.23
2022-12-19T21:10:14.394Z,46.52
2022-12-19T21:12:47.346Z,46.94
2022-12-19T21:15:15.504Z,46.91
2022-12-19T21:17:42.302Z,46.92
2022-12-19T21:20:10.020Z,46.84
2022-12-19T21:22:37.721Z,47.12
2022-12-19T21:25:05.459Z,47.53
2022-12-19T21:27:32.298Z,47.63
2022-12-19T21:30:00.310Z,47.28
2022-12-19T21:32:27.870Z,47.03
2022-12-19T21:34:55.190Z,47.26
2022-12-19T21:37:24.312Z,47.07
2022-12-19T21:39:51.355Z,47.54
2022-12-19T21:42:18.256Z,46.84
2022-12-19T21:44:46.142Z,48.41
2022-12-19T21:47:13.062Z,48.12
2022-12-19T21:49:39.928Z,47.33
2022-12-19T21:52:06.643Z,47.89
2022-12-19T21:54:33.370Z,47.54
2022-12-19T21:57:00.515Z,48.04
2022-12-19T21:59:27.498Z,49.58
2022-12-19T22:01:54.389Z,49.01
2022-12-19T22:04:23.805Z,48.41
2022-12-19T22:06:51.285Z,48.33
2022-12-19T22:09:22.402Z,48.59
2022-12-19T22:11:49.772Z,48.77
2022-12-19T22:14:18.422Z,48.89
2022-12-19T22:16:45.471Z,48.83
2022-12-19T22:19:17.048Z,48.86
2022-12-19T22:21:45.371Z,49.18
2022-12-19T22:24:14.354Z,49.23
2022-12-19T22:26:41.221Z,49.66
2022-12-19T22:29:10.985Z,49.79
2022-12-19T22:31:38.865Z,49.62
2022-12-19T22:34:08.607Z,49.82
2022-12-19T22:36:36.899Z,50.62
2022-12-19T22:39:08.648Z,50.32
2022-12-19T22:41:36.454Z,50.12
2022-12-19T22:44:04.039Z,50.33
2022-12-19T22:46:36.756Z,50.42
2022-12-19T22:49:08.883Z,50.86
2022-12-19T22:51:36.707Z,51.40
2022-12-19T22:54:05.633Z,51.41
2022-12-19T22:56:33.808Z,51.78
2022-12-19T22:59:07.045Z,52.45
2022-12-19T23:01:37.123Z,52.23
2022-12-19T23:04:05.312Z,51.95
2022-12-19T23:06:34.500Z,52.17
2022-12-19T23:09:01.882Z,53.00
2022-12-19T23:11:32.306Z,52.57
2022-12-19T23:14:01.074Z,52.55
2022-12-19T23:16:28.056Z,53.02
2022-12-19T23:18:55.003Z,53.46
2022-12-19T23:21:24.184Z,53.42
2022-12-19T23:23:54.075Z,53.24
2022-12-19T23:26:22.527Z,53.35
2022-12-19T23:29:10.728Z,53.20
2022-12-19T23:31:40.951Z,53.15
2022-12-19T23:34:08.298Z,53.38
2022-12-19T23:39:21.934Z,53.47
2022-12-19T23:41:48.777Z,53.29
2022-12-19T23:44:15.834Z,52.67
2022-12-19T23:46:42.828Z,52.64
2022-12-19T23:49:09.533Z,53.13
2022-12-19T23:51:36.375Z,52.82
2022-12-19T23:54:03.364Z,53.05
2022-12-19T23:56:31.802Z,53.22
2022-12-19T23:58:58.828Z,52.92
